Time;durP1;ratioP1;P1;durP2;ratioP2;P2;SDS_P1;SDS_P2;PMS_P1;PMS_P2;Temp;Humidity;BMP_temperature;BMP_pressure;BME280_temperature;BME280_humidity;BME280_pressure;Samples;Min_cycle;Max_cycle;Signal;HPM_P1;HPM_P2
2021/01/24 00:00:26;;;;;;;13.50;10.02;;;5.90;72.40;;;;;;5072472;28;20423;-68
2021/01/24 00:02:52;;;;;;;14.25;11.20;;;5.90;72.40;;;;;;5071408;28;20042;-69
2021/01/24 00:05:18;;;;;;;14.85;11.52;;;5.90;72.40;;;;;;5064877;28;20176;-68
2021/01/24 00:07:43;;;;;;;12.95;10.32;;;5.90;72.20;;;;;;5071743;28;20127;-68
2021/01/24 00:10:12;;;;;;;14.18;10.95;;;5.80;72.10;;;;;;5074405;28;20079;-67
2021/01/24 00:12:39;;;;;;;13.48;10.93;;;5.80;72.10;;;;;;5070436;28;22321;-60
2021/01/24 00:15:06;;;;;;;12.45;11.02;;;5.80;72.20;;;;;;5070588;28;20062;-59
2021/01/24 00:17:33;;;;;;;13.70;10.70;;;5.80;72.20;;;;;;5071519;28;20051;-59
2021/01/24 00:20:00;;;;;;;15.38;10.77;;;5.80;72.20;;;;;;5072249;28;20057;-67
2021/01/24 00:22:27;;;;;;;15.77;12.55;;;5.70;72.60;;;;;;5071873;28;22137;-67
2021/01/24 00:24:56;;;;;;;20.27;12.52;;;5.70;72.40;;;;;;5071320;28;20496;-67
2021/01/24 00:27:23;;;;;;;17.05;12.07;;;5.60;72.50;;;;;;5072573;28;20041;-67
2021/01/24 00:29:49;;;;;;;13.95;10.65;;;5.50;72.50;;;;;;5073549;28;20062;-67
2021/01/24 00:32:15;;;;;;;14.20;10.80;;;5.50;72.70;;;;;;5069668;28;20144;-67
2021/01/24 00:34:42;;;;;;;13.38;10.15;;;5.40;72.80;;;;;;5071397;28;20115;-67
2021/01/24 00:37:08;;;;;;;13.38;10.20;;;5.40;72.80;;;;;;5063620;28;20039;-67
2021/01/24 00:39:34;;;;;;;15.77;11.27;;;5.40;72.90;;;;;;5072959;28;20156;-67
2021/01/24 00:42:00;;;;;;;14.38;11.00;;;5.40;73.10;;;;;;5071562;28;20090;-67
2021/01/24 00:44:26;;;;;;;15.95;11.00;;;5.30;73.20;;;;;;5070304;28;20123;-68
2021/01/24 00:46:52;;;;;;;13.50;10.00;;;5.30;73.20;;;;;;5071469;28;20089;-67
2021/01/24 00:49:17;;;;;;;13.27;10.18;;;5.30;73.30;;;;;;5073520;28;20143;-67
2021/01/24 00:51:43;;;;;;;15.27;11.93;;;5.30;73.30;;;;;;5057167;28;20119;-67
2021/01/24 00:54:09;;;;;;;14.73;11.60;;;5.30;73.30;;;;;;5063893;28;20395;-67
2021/01/24 00:56:34;;;;;;;13.68;10.55;;;5.30;73.30;;;;;;5071639;28;20082;-67
2021/01/24 00:59:00;;;;;;;13.63;10.75;;;5.30;73.40;;;;;;5070655;28;20032;-68
2021/01/24 01:01:26;;;;;;;12.98;10.75;;;5.30;73.40;;;;;;5072014;28;20459;-68
2021/01/24 01:03:52;;;;;;;19.52;11.70;;;5.30;73.30;;;;;;5071479;28;20613;-67
2021/01/24 01:06:17;;;;;;;19.02;11.27;;;5.30;73.40;;;;;;5071276;28;20064;-59
2021/01/24 01:08:43;;;;;;;18.50;12.65;;;5.20;73.90;;;;;;5072548;28;20062;-59
2021/01/24 01:11:09;;;;;;;16.63;11.00;;;5.20;73.70;;;;;;5066230;28;20052;-61
2021/01/24 01:13:35;;;;;;;15.15;11.07;;;5.20;73.60;;;;;;5058643;28;20032;-61
2021/01/24 01:16:01;;;;;;;14.85;10.93;;;5.20;73.70;;;;;;5069936;28;20394;-63
2021/01/24 01:18:29;;;;;;;18.17;11.18;;;5.20;73.70;;;;;;5058447;28;20055;-64
2021/01/24 01:20:55;;;;;;;15.88;11.48;;;5.20;73.70;;;;;;5070529;28;20036;-63
2021/01/24 01:23:21;;;;;;;13.68;11.55;;;5.20;73.60;;;;;;5069541;28;20040;-63
2021/01/24 01:25:51;;;;;;;20.35;12.48;;;5.20;73.70;;;;;;5071058;28;20032;-71
2021/01/24 01:28:17;;;;;;;14.52;12.25;;;5.20;73.70;;;;;;5072426;28;20515;-70
2021/01/24 01:30:43;;;;;;;15.95;10.48;;;5.20;73.80;;;;;;5064988;28;20059;-72
2021/01/24 01:33:08;;;;;;;18.55;12.93;;;5.20;73.90;;;;;;5058268;28;20036;-72
2021/01/24 01:35:34;;;;;;;18.20;11.57;;;5.20;74.30;;;;;;5070652;28;20046;-73
2021/01/24 01:38:00;;;;;;;18.95;11.80;;;5.20;74.30;;;;;;5075224;28;20040;-73
2021/01/24 01:40:26;;;;;;;14.23;11.68;;;5.20;74.20;;;;;;5074184;28;20959;-72
2021/01/24 01:42:52;;;;;;;17.05;12.02;;;5.20;74.00;;;;;;5075883;28;20082;-71
2021/01/24 01:45:18;;;;;;;16.73;12.18;;;5.20;74.10;;;;;;5063174;28;20043;-71
2021/01/24 01:47:43;;;;;;;17.08;11.63;;;5.30;74.00;;;;;;5076382;28;20032;-71
2021/01/24 01:50:10;;;;;;;19.85;12.43;;;5.20;73.80;;;;;;5074004;28;20048;-71
2021/01/24 01:52:36;;;;;;;17.25;12.07;;;5.20;73.80;;;;;;5074761;28;20040;-70
2021/01/24 01:55:02;;;;;;;15.95;10.95;;;5.20;73.70;;;;;;5074298;28;20070;-71
2021/01/24 01:57:28;;;;;;;19.95;12.35;;;5.20;73.80;;;;;;5073872;28;20047;-66
2021/01/24 01:59:54;;;;;;;18.80;12.52;;;5.20;73.70;;;;;;5076153;28;20543;-70
2021/01/24 02:02:22;;;;;;;17.30;12.23;;;5.10;73.60;;;;;;5074573;28;20111;-71
2021/01/24 02:05:00;;;;;;;15.00;12.27;;;5.00;73.70;;;;;;5075645;28;20036;-71
2021/01/24 02:07:52;;;;;;;15.07;12.38;;;5.00;73.80;;;;;;5063110;28;20033;-71
2021/01/24 02:10:22;;;;;;;15.52;11.85;;;5.00;74.00;;;;;;5073419;28;20059;-71
2021/01/24 02:13:14;;;;;;;16.33;12.40;;;4.90;74.00;;;;;;5061061;28;20123;-73
2021/01/24 02:15:42;;;;;;;17.15;11.77;;;4.90;73.90;;;;;;5062213;28;20121;-72
2021/01/24 02:18:10;;;;;;;15.63;11.65;;;4.80;73.80;;;;;;5074805;28;20045;-72
2021/01/24 02:20:45;;;;;;;17.73;12.48;;;4.80;73.80;;;;;;5073205;28;20044;-71
2021/01/24 02:23:14;;;;;;;21.02;11.85;;;4.70;73.90;;;;;;5075287;28;20040;-72
2021/01/24 02:26:07;;;;;;;17.55;11.98;;;4.70;74.00;;;;;;5074858;28;20127;-73
2021/01/24 02:28:59;;;;;;;14.93;12.82;;;4.70;73.90;;;;;;5073708;28;20032;-72
2021/01/24 02:31:27;;;;;;;21.77;12.35;;;4.60;73.80;;;;;;5073509;28;20052;-71
2021/01/24 02:33:55;;;;;;;19.15;13.75;;;4.60;74.20;;;;;;5074186;28;20063;-71
2021/01/24 02:36:21;;;;;;;14.80;12.38;;;4.50;74.20;;;;;;5074430;28;20120;-70
2021/01/24 02:38:47;;;;;;;23.02;13.45;;;4.50;74.30;;;;;;5074454;28;20119;-71
2021/01/24 02:41:15;;;;;;;16.98;13.35;;;4.50;74.20;;;;;;5043684;28;20037;-70
2021/01/24 02:43:47;;;;;;;19.77;13.02;;;4.40;74.40;;;;;;5074431;28;20040;-71
2021/01/24 02:46:14;;;;;;;16.65;12.27;;;4.40;74.70;;;;;;5074234;28;20113;-71
2021/01/24 02:48:43;;;;;;;17.80;12.90;;;4.40;74.80;;;;;;5073532;28;20499;-73
2021/01/24 02:51:10;;;;;;;16.48;12.68;;;4.40;74.80;;;;;;5073884;28;20044;-70
2021/01/24 02:53:38;;;;;;;15.85;11.68;;;4.40;74.70;;;;;;5060978;28;20040;-69
2021/01/24 02:56:04;;;;;;;18.75;13.57;;;4.50;74.60;;;;;;5061316;28;20032;-67
2021/01/24 02:58:30;;;;;;;21.23;12.95;;;4.40;74.90;;;;;;5074200;28;20060;-68
2021/01/24 03:00:56;;;;;;;19.42;13.18;;;4.40;75.00;;;;;;5059683;28;20508;-67
2021/01/24 03:03:23;;;;;;;23.48;13.60;;;4.40;75.20;;;;;;5074515;28;20653;-68
2021/01/24 03:05:48;;;;;;;21.65;13.27;;;4.30;74.90;;;;;;5075615;28;20115;-67
2021/01/24 03:08:14;;;;;;;19.35;12.70;;;4.30;75.10;;;;;;5073217;28;20111;-68
2021/01/24 03:10:41;;;;;;;17.58;12.50;;;4.30;75.10;;;;;;5060353;28;20037;-67
2021/01/24 03:13:11;;;;;;;19.05;12.45;;;4.30;74.90;;;;;;5073461;28;20689;-67
2021/01/24 03:15:38;;;;;;;16.88;12.60;;;4.30;74.70;;;;;;5072748;28;20033;-67
2021/01/24 03:18:07;;;;;;;19.83;13.02;;;4.20;74.70;;;;;;5072315;28;20090;-66
2021/01/24 03:20:40;;;;;;;17.85;12.25;;;4.30;74.70;;;;;;5070798;28;20762;-67
2021/01/24 03:23:07;;;;;;;14.80;13.20;;;4.20;74.50;;;;;;5074531;28;20051;-66
2021/01/24 03:25:35;;;;;;;18.00;13.10;;;4.20;74.60;;;;;;5072734;28;20044;-66
2021/01/24 03:28:02;;;;;;;19.23;13.18;;;4.20;74.70;;;;;;5073457;28;20036;-62
2021/01/24 03:30:27;;;;;;;17.65;14.23;;;4.10;74.70;;;;;;5059731;28;20113;-62
2021/01/24 03:32:53;;;;;;;19.38;12.45;;;4.10;74.80;;;;;;5060588;28;20032;-67
2021/01/24 03:35:19;;;;;;;18.05;13.65;;;4.10;75.20;;;;;;5072693;28;20042;-67
2021/01/24 03:37:45;;;;;;;17.92;13.52;;;4.10;75.00;;;;;;5066484;28;20488;-68
2021/01/24 03:40:11;;;;;;;18.42;13.25;;;4.10;75.00;;;;;;5072328;28;20047;-68
2021/01/24 03:42:37;;;;;;;16.92;12.60;;;4.10;75.10;;;;;;5073342;28;20039;-67
2021/01/24 03:45:04;;;;;;;18.48;13.77;;;4.10;75.20;;;;;;5072016;28;20028;-67
2021/01/24 03:47:29;;;;;;;20.15;14.13;;;4.10;75.10;;;;;;5074365;28;20040;-68
2021/01/24 03:49:55;;;;;;;18.08;12.90;;;4.10;75.10;;;;;;5071870;28;20035;-68
2021/01/24 03:52:21;;;;;;;18.83;14.10;;;4.10;75.00;;;;;;5058401;28;20040;-67
2021/01/24 03:54:47;;;;;;;16.80;13.20;;;4.10;75.30;;;;;;5072702;28;20083;-67
2021/01/24 03:57:12;;;;;;;19.92;13.60;;;4.10;75.40;;;;;;5073420;28;20914;-67
2021/01/24 03:59:38;;;;;;;17.55;12.90;;;4.10;75.50;;;;;;5065742;28;20069;-68
2021/01/24 04:02:04;;;;;;;19.88;13.77;;;4.10;75.60;;;;;;5071391;28;20036;-68
2021/01/24 04:04:29;;;;;;;17.77;12.85;;;4.20;75.50;;;;;;5072991;28;20040;-68
2021/01/24 04:06:55;;;;;;;17.75;14.00;;;4.20;75.30;;;;;;5074962;28;20957;-67
2021/01/24 04:09:21;;;;;;;18.25;13.07;;;4.20;75.20;;;;;;5070943;28;20108;-67
2021/01/24 04:11:46;;;;;;;17.67;14.07;;;4.20;75.20;;;;;;5071750;28;20044;-67
2021/01/24 04:14:12;;;;;;;16.58;13.05;;;4.10;75.80;;;;;;5072585;28;20408;-67
2021/01/24 04:16:38;;;;;;;16.17;13.50;;;4.10;75.30;;;;;;5072323;28;20126;-67
2021/01/24 04:19:04;;;;;;;18.30;12.57;;;4.10;75.10;;;;;;5059500;28;20044;-67
2021/01/24 04:21:30;;;;;;;14.20;12.70;;;4.10;75.00;;;;;;5070103;28;20066;-67
2021/01/24 04:23:56;;;;;;;19.30;13.88;;;4.00;75.00;;;;;;5073141;28;20044;-67
2021/01/24 04:26:22;;;;;;;18.30;13.00;;;4.00;75.10;;;;;;5073725;28;20043;-67
2021/01/24 04:28:48;;;;;;;18.13;14.07;;;4.00;75.10;;;;;;5071991;28;20085;-67
2021/01/24 04:31:15;;;;;;;20.00;14.73;;;4.00;75.30;;;;;;5059992;28;20052;-67
2021/01/24 04:33:40;;;;;;;17.02;13.25;;;3.90;75.30;;;;;;5072896;28;20040;-67
2021/01/24 04:36:07;;;;;;;20.00;13.85;;;3.90;75.30;;;;;;5070800;28;20040;-67
2021/01/24 04:38:34;;;;;;;19.30;13.57;;;3.90;75.30;;;;;;5071969;28;20043;-67
2021/01/24 04:41:00;;;;;;;22.27;14.80;;;3.90;75.20;;;;;;5069698;28;20047;-67
2021/01/24 04:43:26;;;;;;;19.42;13.75;;;3.90;75.20;;;;;;5072657;28;20083;-67
2021/01/24 04:45:55;;;;;;;19.77;14.48;;;3.90;75.40;;;;;;5073033;28;20484;-66
2021/01/24 04:48:23;;;;;;;18.20;13.57;;;3.90;75.50;;;;;;5072643;28;22197;-67
2021/01/24 04:50:49;;;;;;;17.90;13.57;;;3.90;75.30;;;;;;5071028;28;20047;-67
2021/01/24 04:53:15;;;;;;;20.33;13.10;;;3.90;75.10;;;;;;5070149;28;20040;-67
2021/01/24 04:55:42;;;;;;;23.13;15.20;;;3.90;75.10;;;;;;5071031;28;20040;-59
2021/01/24 04:58:08;;;;;;;20.98;14.30;;;3.90;75.30;;;;;;5071770;28;20477;-59
2021/01/24 05:00:34;;;;;;;18.70;14.25;;;3.90;75.50;;;;;;5071709;28;20535;-59
2021/01/24 05:03:00;;;;;;;17.17;14.20;;;3.90;75.50;;;;;;5070776;28;22217;-59
2021/01/24 05:05:26;;;;;;;19.33;13.88;;;3.90;75.50;;;;;;5072099;28;20048;-59
2021/01/24 05:07:56;;;;;;;18.15;13.80;;;3.90;75.60;;;;;;5074434;28;20062;-59
2021/01/24 05:10:31;;;;;;;17.88;13.68;;;3.90;75.60;;;;;;5072119;28;20044;-59
2021/01/24 05:12:57;;;;;;;19.92;13.50;;;3.90;75.60;;;;;;5075898;28;20484;-59
2021/01/24 05:15:24;;;;;;;20.60;13.40;;;3.90;75.50;;;;;;5075702;28;20036;-59
2021/01/24 05:17:54;;;;;;;20.60;15.02;;;3.90;75.40;;;;;;5075419;28;20044;-59
2021/01/24 05:20:29;;;;;;;17.45;13.43;;;3.90;75.30;;;;;;5075700;28;20595;-59
2021/01/24 05:22:56;;;;;;;17.60;13.63;;;3.90;75.80;;;;;;5074786;28;20036;-59
2021/01/24 05:25:26;;;;;;;19.90;14.02;;;3.90;75.30;;;;;;5076040;28;20067;-59
2021/01/24 05:27:52;;;;;;;17.10;12.55;;;4.00;75.30;;;;;;5077800;28;20043;-59
2021/01/24 05:30:29;;;;;;;20.45;13.98;;;3.90;75.20;;;;;;5060449;28;20052;-59
2021/01/24 05:32:57;;;;;;;17.67;12.50;;;4.00;75.20;;;;;;5075021;28;20101;-59
2021/01/24 05:35:23;;;;;;;14.68;12.20;;;4.00;75.30;;;;;;5075007;28;20145;-59
2021/01/24 05:37:49;;;;;;;22.65;13.63;;;4.10;75.40;;;;;;5075282;28;20090;-59
2021/01/24 05:40:15;;;;;;;16.65;13.57;;;4.10;75.40;;;;;;5075622;28;20086;-60
2021/01/24 05:42:41;;;;;;;16.80;13.10;;;4.10;75.30;;;;;;5074038;28;20044;-59
2021/01/24 05:45:14;;;;;;;20.13;13.63;;;4.10;75.40;;;;;;5075189;28;20113;-60
2021/01/24 05:47:45;;;;;;;19.63;13.75;;;4.10;75.50;;;;;;5077537;28;20397;-59
2021/01/24 05:50:11;;;;;;;18.92;13.90;;;4.10;75.60;;;;;;5073240;28;20044;-59
2021/01/24 05:52:41;;;;;;;19.90;13.70;;;4.10;75.70;;;;;;5074645;28;20096;-59
2021/01/24 05:55:09;;;;;;;15.68;12.10;;;4.10;75.70;;;;;;5075648;28;20044;-59
2021/01/24 05:57:40;;;;;;;19.63;13.32;;;4.10;75.80;;;;;;5075981;28;20037;-59
2021/01/24 06:00:06;;;;;;;17.92;13.23;;;4.10;76.00;;;;;;5074557;28;20028;-59
2021/01/24 06:02:32;;;;;;;16.52;12.43;;;4.10;75.90;;;;;;5072984;28;20451;-59
2021/01/24 06:04:58;;;;;;;13.88;12.20;;;4.10;75.80;;;;;;5075938;28;20060;-59
2021/01/24 06:07:24;;;;;;;16.88;13.45;;;4.10;75.80;;;;;;5076377;28;20039;-59
2021/01/24 06:09:50;;;;;;;17.85;12.90;;;4.10;75.80;;;;;;5074105;28;20042;-59
2021/01/24 06:12:20;;;;;;;18.48;13.23;;;4.20;75.90;;;;;;5074492;28;20051;-59
2021/01/24 06:14:49;;;;;;;16.55;12.88;;;4.10;75.80;;;;;;5074787;28;20036;-59
2021/01/24 06:17:25;;;;;;;16.25;13.07;;;4.10;75.80;;;;;;5074693;28;20040;-59
2021/01/24 06:20:00;;;;;;;18.10;13.48;;;4.10;75.90;;;;;;5074421;28;20036;-59
2021/01/24 06:22:45;;;;;;;15.73;12.35;;;4.10;75.90;;;;;;5071679;28;20080;-67
2021/01/24 06:25:38;;;;;;;17.70;12.70;;;4.10;76.00;;;;;;5069194;28;20040;-67
2021/01/24 06:28:11;;;;;;;15.98;12.75;;;4.10;76.10;;;;;;5074464;28;20048;-67
2021/01/24 06:30:37;;;;;;;15.70;11.70;;;4.10;76.20;;;;;;5073016;28;20096;-67
2021/01/24 06:33:15;;;;;;;15.50;11.77;;;4.20;76.30;;;;;;5074584;28;20060;-67
2021/01/24 06:35:49;;;;;;;18.65;11.57;;;4.30;76.20;;;;;;5074045;28;20149;-67
2021/01/24 06:38:36;;;;;;;16.63;11.52;;;4.20;76.10;;;;;;5076145;28;20124;-67
2021/01/24 06:41:05;;;;;;;14.75;11.18;;;4.30;76.20;;;;;;5074323;28;20040;-66
2021/01/24 06:43:42;;;;;;;17.35;11.35;;;4.30;76.70;;;;;;5074134;28;20043;-67
2021/01/24 06:46:18;;;;;;;12.20;10.27;;;4.30;76.40;;;;;;5074259;28;20032;-67
2021/01/24 06:48:50;;;;;;;16.80;10.60;;;4.30;76.40;;;;;;5076769;28;20240;-67
2021/01/24 06:51:33;;;;;;;14.98;10.07;;;4.30;76.30;;;;;;5073645;28;20113;-67
2021/01/24 06:54:04;;;;;;;17.42;9.95;;;4.40;76.20;;;;;;5071693;28;20383;-59
2021/01/24 06:56:41;;;;;;;13.15;10.95;;;4.40;76.20;;;;;;5073837;28;20033;-59
2021/01/24 06:59:08;;;;;;;15.23;10.70;;;4.40;76.10;;;;;;5074106;28;20982;-60
2021/01/24 07:01:38;;;;;;;14.75;10.88;;;4.40;76.00;;;;;;5074477;28;20061;-60
2021/01/24 07:04:25;;;;;;;13.48;10.68;;;4.40;75.80;;;;;;5071251;28;20037;-59
2021/01/24 07:07:00;;;;;;;14.48;11.10;;;4.40;75.60;;;;;;5074814;28;20040;-59
2021/01/24 07:09:25;;;;;;;13.10;10.15;;;4.40;75.70;;;;;;5075366;28;20043;-59
2021/01/24 07:11:59;;;;;;;13.23;9.80;;;4.40;75.50;;;;;;5072046;28;20406;-59
2021/01/24 07:14:34;;;;;;;14.80;10.40;;;4.40;75.30;;;;;;5072545;28;20033;-59
2021/01/24 07:17:15;;;;;;;18.42;10.50;;;4.40;75.20;;;;;;5072417;28;20037;-59
2021/01/24 07:20:01;;;;;;;26.30;11.23;;;4.30;75.50;;;;;;5074642;28;20036;-59
2021/01/24 07:22:29;;;;;;;14.85;10.23;;;4.30;75.40;;;;;;5072636;28;20045;-59
2021/01/24 07:24:55;;;;;;;11.88;10.05;;;4.30;75.10;;;;;;5073086;28;20036;-59
2021/01/24 07:27:26;;;;;;;15.52;10.52;;;4.30;75.00;;;;;;5073335;28;20055;-59
2021/01/24 07:29:52;;;;;;;13.27;10.25;;;4.30;74.70;;;;;;5075537;28;20063;-59
2021/01/24 07:32:23;;;;;;;13.77;11.20;;;4.20;74.50;;;;;;5071839;28;20056;-64
2021/01/24 07:34:52;;;;;;;13.38;10.45;;;4.20;74.60;;;;;;5071315;28;20043;-61
2021/01/24 07:37:19;;;;;;;12.85;11.05;;;4.20;74.70;;;;;;5059504;28;20127;-62
2021/01/24 07:39:47;;;;;;;15.80;10.48;;;4.10;74.90;;;;;;5073688;28;20487;-62
2021/01/24 07:42:14;;;;;;;14.60;10.35;;;4.10;74.80;;;;;;5074652;28;20086;-59
2021/01/24 07:44:41;;;;;;;10.60;9.25;;;4.00;74.70;;;;;;5070646;28;20032;-59
2021/01/24 07:47:08;;;;;;;10.02;8.90;;;4.10;74.80;;;;;;5072898;28;20150;-60
2021/01/24 07:49:35;;;;;;;13.35;10.75;;;4.10;74.70;;;;;;5074956;28;20487;-59
2021/01/24 07:52:03;;;;;;;13.35;9.82;;;4.20;74.50;;;;;;5068145;28;20045;-65
2021/01/24 07:54:29;;;;;;;18.20;10.43;;;4.20;74.10;;;;;;5070185;28;20037;-58
2021/01/24 07:56:55;;;;;;;12.52;9.23;;;4.30;74.50;;;;;;5071536;28;20055;-63
2021/01/24 07:59:22;;;;;;;13.57;9.40;;;4.30;74.10;;;;;;5072746;28;20028;-58
2021/01/24 08:01:48;;;;;;;11.32;8.32;;;4.60;73.90;;;;;;5069607;28;20070;-59
2021/01/24 08:04:13;;;;;;;13.30;8.73;;;5.00;73.40;;;;;;5071312;28;20028;-59
2021/01/24 08:06:40;;;;;;;11.98;10.05;;;5.20;72.80;;;;;;5059016;28;20117;-58
2021/01/24 08:09:07;;;;;;;12.90;8.48;;;5.40;72.20;;;;;;5072701;28;20036;-59
2021/01/24 08:11:34;;;;;;;9.63;7.60;;;5.40;71.70;;;;;;5071303;28;20114;-59
2021/01/24 08:14:00;;;;;;;8.73;7.35;;;5.30;71.50;;;;;;5069961;28;20029;-59
2021/01/24 08:16:33;;;;;;;10.85;8.38;;;5.30;71.70;;;;;;5070268;28;20098;-59
2021/01/24 08:19:01;;;;;;;11.13;7.97;;;5.40;71.80;;;;;;5070387;28;20028;-67
2021/01/24 08:21:27;;;;;;;11.35;7.80;;;5.40;72.30;;;;;;5067722;28;20484;-67
2021/01/24 08:23:54;;;;;;;10.95;7.53;;;5.50;71.70;;;;;;5072946;28;20064;-67
2021/01/24 08:26:21;;;;;;;10.65;7.15;;;5.70;71.60;;;;;;5058907;28;20884;-67
2021/01/24 08:28:48;;;;;;;10.25;7.57;;;5.80;71.30;;;;;;5067817;28;20039;-67
2021/01/24 08:31:22;;;;;;;9.60;6.10;;;5.90;70.90;;;;;;5066858;28;20264;-66
2021/01/24 08:33:49;;;;;;;9.80;7.05;;;6.10;70.70;;;;;;5072643;28;20028;-67
2021/01/24 08:36:17;;;;;;;10.82;7.50;;;6.10;70.50;;;;;;5071078;28;20489;-67
2021/01/24 08:38:44;;;;;;;10.88;6.95;;;6.20;70.30;;;;;;5072237;28;20036;-67
2021/01/24 08:41:14;;;;;;;9.82;6.10;;;6.20;70.10;;;;;;5072750;28;20197;-67
2021/01/24 08:43:40;;;;;;;9.00;6.95;;;6.30;70.00;;;;;;5068910;28;20051;-67
2021/01/24 08:46:26;;;;;;;7.20;5.35;;;6.40;70.00;;;;;;5071554;28;20393;-59
2021/01/24 08:49:03;;;;;;;3.47;2.58;;;6.60;69.90;;;;;;5069343;28;20029;-59
2021/01/24 08:51:54;;;;;;;2.63;1.90;;;6.70;69.90;;;;;;5056375;28;20067;-63
2021/01/24 08:54:22;;;;;;;2.45;1.00;;;6.70;70.00;;;;;;5057575;28;20044;-64
2021/01/24 08:56:49;;;;;;;1.17;0.55;;;6.70;70.00;;;;;;5068021;28;20107;-65
2021/01/24 08:59:22;;;;;;;1.60;0.95;;;6.60;70.00;;;;;;5068210;28;20040;-68
2021/01/24 09:01:50;;;;;;;2.55;1.00;;;6.50;70.20;;;;;;5069653;28;20041;-66
2021/01/24 09:04:21;;;;;;;3.88;1.00;;;6.50;70.50;;;;;;5068798;28;20040;-73
2021/01/24 09:07:13;;;;;;;2.08;0.70;;;6.40;70.90;;;;;;5071059;28;20090;-71
2021/01/24 09:09:46;;;;;;;3.78;1.17;;;6.30;70.90;;;;;;5073347;28;20071;-65
2021/01/24 09:12:15;;;;;;;1.33;0.65;;;6.30;71.30;;;;;;5073391;28;20059;-64
2021/01/24 09:14:42;;;;;;;1.50;0.80;;;6.20;71.60;;;;;;5057738;28;20550;-64
2021/01/24 09:17:10;;;;;;;3.13;0.93;;;6.10;71.60;;;;;;5071737;28;20040;-63
2021/01/24 09:19:39;;;;;;;2.22;0.80;;;6.10;71.60;;;;;;5070111;28;20044;-72
2021/01/24 09:22:09;;;;;;;3.92;1.30;;;6.10;71.70;;;;;;5073300;28;20068;-69
2021/01/24 09:24:35;;;;;;;3.05;1.17;;;6.10;72.30;;;;;;5071433;28;20601;-69
2021/01/24 09:27:02;;;;;;;2.15;1.83;;;6.10;72.00;;;;;;5058492;28;20472;-71
2021/01/24 09:29:28;;;;;;;3.13;1.70;;;6.10;72.30;;;;;;5058316;28;20040;-64
2021/01/24 09:31:55;;;;;;;2.83;1.33;;;6.10;72.40;;;;;;5073306;28;20045;-58
2021/01/24 09:34:21;;;;;;;2.00;1.40;;;6.10;72.30;;;;;;5071005;28;20149;-63
2021/01/24 09:36:46;;;;;;;2.58;1.15;;;6.10;72.30;;;;;;5071313;28;20480;-62
2021/01/24 09:39:13;;;;;;;3.83;1.45;;;6.20;72.20;;;;;;5071581;28;20040;-61
2021/01/24 09:41:39;;;;;;;2.88;0.88;;;6.20;72.10;;;;;;5072370;28;20115;-63
2021/01/24 09:44:05;;;;;;;3.65;1.63;;;6.20;72.60;;;;;;5057841;28;20036;-66
2021/01/24 09:46:31;;;;;;;2.33;1.20;;;6.30;72.30;;;;;;5042856;28;20202;-66
2021/01/24 09:48:57;;;;;;;2.83;1.10;;;6.30;72.10;;;;;;5071163;28;20033;-60
2021/01/24 09:51:23;;;;;;;3.30;1.35;;;6.40;71.90;;;;;;5071222;28;20376;-61
2021/01/24 09:53:53;;;;;;;5.13;2.10;;;6.40;71.70;;;;;;5068441;28;20123;-61
2021/01/24 09:56:20;;;;;;;7.93;2.20;;;6.50;71.70;;;;;;5069973;28;20107;-61
2021/01/24 09:58:46;;;;;;;4.00;1.50;;;6.50;71.80;;;;;;5069125;28;20092;-70
2021/01/24 10:01:12;;;;;;;3.30;1.33;;;6.50;71.80;;;;;;5072587;28;20064;-70
2021/01/24 10:03:38;;;;;;;1.23;0.88;;;6.40;71.80;;;;;;5072406;28;20337;-68
2021/01/24 10:06:05;;;;;;;4.97;2.00;;;6.50;71.70;;;;;;5079141;28;20043;-66
2021/01/24 10:08:31;;;;;;;2.83;1.13;;;6.40;71.70;;;;;;5073377;28;20036;-66
2021/01/24 10:10:57;;;;;;;2.92;1.00;;;6.40;71.80;;;;;;5061951;28;20492;-66
2021/01/24 10:13:23;;;;;;;2.78;1.02;;;6.40;71.80;;;;;;5075128;28;20047;-71
2021/01/24 10:15:52;;;;;;;1.70;0.88;;;6.40;71.80;;;;;;5062585;28;20047;-68
2021/01/24 10:18:19;;;;;;;2.13;0.80;;;6.40;71.80;;;;;;5071445;28;20048;-67
2021/01/24 10:20:45;;;;;;;1.13;0.43;;;6.40;71.90;;;;;;5072365;28;20044;-61
2021/01/24 10:23:12;;;;;;;1.48;0.50;;;6.50;71.90;;;;;;5075019;28;20633;-62
2021/01/24 10:25:38;;;;;;;1.88;0.77;;;6.60;71.80;;;;;;5073668;28;20032;-69
2021/01/24 10:28:04;;;;;;;1.35;0.52;;;6.70;71.80;;;;;;5063436;28;20041;-70
2021/01/24 10:30:30;;;;;;;1.33;0.60;;;6.90;71.60;;;;;;5045881;28;20442;-60
2021/01/24 10:32:56;;;;;;;1.95;0.68;;;7.20;71.30;;;;;;5077060;28;20048;-60
2021/01/24 10:35:22;;;;;;;3.45;0.82;;;7.50;70.90;;;;;;5071635;28;20036;-61
2021/01/24 10:37:48;;;;;;;3.33;1.05;;;8.00;71.10;;;;;;5048854;28;20557;-59
2021/01/24 10:40:14;;;;;;;2.13;0.70;;;8.30;69.80;;;;;;5073912;28;20093;-60
2021/01/24 10:42:41;;;;;;;1.92;1.00;;;8.50;69.20;;;;;;5076273;28;20040;-59
2021/01/24 10:45:08;;;;;;;4.55;0.93;;;8.70;68.70;;;;;;5063213;28;20619;-58
2021/01/24 10:47:34;;;;;;;1.70;0.70;;;8.80;68.10;;;;;;5071009;28;20497;-58
2021/01/24 10:50:00;;;;;;;2.05;0.85;;;9.00;68.00;;;;;;5073404;28;20033;-58
2021/01/24 10:52:26;;;;;;;1.67;0.70;;;9.10;68.00;;;;;;5072262;28;20044;-59
2021/01/24 10:54:51;;;;;;;3.42;0.95;;;9.20;68.00;;;;;;5071191;28;20049;-58
2021/01/24 10:57:17;;;;;;;1.58;0.60;;;9.30;68.10;;;;;;5073770;28;20057;-59
2021/01/24 10:59:43;;;;;;;2.97;0.90;;;9.40;67.40;;;;;;5058886;28;20396;-58
2021/01/24 11:02:09;;;;;;;6.28;0.80;;;9.50;66.90;;;;;;5061304;28;20054;-59
2021/01/24 11:04:34;;;;;;;2.97;0.50;;;9.50;66.80;;;;;;5071992;28;20036;-67
2021/01/24 11:07:00;;;;;;;2.45;0.82;;;9.50;66.70;;;;;;5072402;28;20036;-66
2021/01/24 11:09:26;;;;;;;3.22;0.93;;;9.60;66.90;;;;;;5072816;28;20055;-67
2021/01/24 11:11:53;;;;;;;6.82;3.22;;;9.70;66.80;;;;;;5070140;28;20122;-66
2021/01/24 11:14:18;;;;;;;2.45;1.08;;;9.70;66.60;;;;;;5073374;28;20040;-67
2021/01/24 11:16:44;;;;;;;3.80;1.15;;;9.70;66.00;;;;;;5072770;28;20142;-64
2021/01/24 11:19:10;;;;;;;2.20;0.70;;;9.60;65.30;;;;;;5071210;28;20548;-65
2021/01/24 11:21:36;;;;;;;3.65;1.17;;;9.60;65.20;;;;;;5072577;28;20400;-66
2021/01/24 11:24:02;;;;;;;3.80;1.50;;;9.60;65.20;;;;;;5072597;28;20059;-66
2021/01/24 11:26:27;;;;;;;2.20;0.50;;;9.60;65.50;;;;;;5073781;28;20108;-67
2021/01/24 11:28:54;;;;;;;1.30;0.40;;;9.50;65.10;;;;;;5071996;28;20040;-66
2021/01/24 11:31:19;;;;;;;1.92;0.60;;;9.60;65.20;;;;;;5073916;28;20052;-66
2021/01/24 11:33:46;;;;;;;2.20;0.80;;;9.50;64.80;;;;;;5072996;28;20523;-66
2021/01/24 11:36:12;;;;;;;1.92;0.50;;;9.50;65.00;;;;;;5071238;28;20036;-67
2021/01/24 11:38:38;;;;;;;3.00;1.02;;;9.50;65.00;;;;;;5069253;28;20454;-65
2021/01/24 11:41:05;;;;;;;3.47;0.57;;;9.50;65.00;;;;;;5071067;28;20041;-65
2021/01/24 11:43:31;;;;;;;2.60;1.13;;;9.30;64.80;;;;;;5072388;28;20126;-65
2021/01/24 11:46:00;;;;;;;1.73;0.60;;;9.20;65.60;;;;;;5069490;28;20119;-71
2021/01/24 11:48:26;;;;;;;3.38;1.00;;;9.10;65.70;;;;;;5072991;28;20486;-72
2021/01/24 11:50:53;;;;;;;2.13;1.00;;;9.10;65.90;;;;;;5074029;28;20089;-73
2021/01/24 11:53:22;;;;;;;1.00;0.40;;;9.00;66.30;;;;;;5070896;28;20068;-71
2021/01/24 11:55:48;;;;;;;2.15;0.65;;;9.00;65.90;;;;;;5068659;28;20500;-71
2021/01/24 11:58:17;;;;;;;1.95;0.60;;;9.00;65.90;;;;;;5073678;28;20047;-71
2021/01/24 12:00:43;;;;;;;1.80;0.43;;;9.00;65.90;;;;;;5073957;28;20059;-73
2021/01/24 12:03:08;;;;;;;2.55;0.75;;;8.90;65.90;;;;;;5053638;28;20109;-75
2021/01/24 12:05:34;;;;;;;2.33;0.50;;;8.80;66.20;;;;;;5064101;28;20052;-65
2021/01/24 12:08:00;;;;;;;3.00;1.23;;;8.80;65.80;;;;;;5072884;28;20043;-65
2021/01/24 12:10:26;;;;;;;3.40;1.35;;;8.70;65.70;;;;;;5074677;28;20066;-65
2021/01/24 12:12:52;;;;;;;2.58;1.20;;;8.60;65.90;;;;;;5070810;28;20041;-64
2021/01/24 12:15:17;;;;;;;2.75;1.58;;;8.50;65.90;;;;;;5071637;28;20492;-71
2021/01/24 12:17:43;;;;;;;2.30;1.35;;;8.50;66.60;;;;;;5070737;28;20040;-69
2021/01/24 12:20:10;;;;;;;1.02;0.57;;;8.40;66.70;;;;;;5074110;28;20027;-71
2021/01/24 12:22:35;;;;;;;2.20;0.85;;;8.20;66.70;;;;;;5065793;28;20041;-70
2021/01/24 12:25:02;;;;;;;2.00;0.70;;;8.10;67.00;;;;;;5071277;28;20041;-73
2021/01/24 12:27:27;;;;;;;2.38;0.68;;;7.90;67.30;;;;;;5073093;28;20032;-73
2021/01/24 12:29:53;;;;;;;0.77;0.25;;;7.70;67.70;;;;;;5073611;28;20086;-68
2021/01/24 12:32:19;;;;;;;3.00;0.60;;;7.60;68.20;;;;;;5086348;28;20484;-59
2021/01/24 12:34:45;;;;;;;2.00;1.13;;;7.50;68.50;;;;;;5056737;28;20045;-59
2021/01/24 12:37:11;;;;;;;1.27;0.68;;;7.50;69.00;;;;;;5071535;28;20036;-59
2021/01/24 12:39:37;;;;;;;1.40;0.50;;;7.40;69.10;;;;;;5072624;28;20498;-60
2021/01/24 12:42:03;;;;;;;1.23;0.40;;;7.40;68.60;;;;;;5070182;28;20123;-66
2021/01/24 12:44:28;;;;;;;1.00;0.38;;;7.40;68.30;;;;;;5071729;28;20175;-66
2021/01/24 12:46:54;;;;;;;1.52;0.40;;;7.40;68.30;;;;;;5073347;28;20388;-67